createdAt,value
2022-12-13T00:01:58.188Z,97528.25
2022-12-13T00:04:25.459Z,97536.16
2022-12-13T00:06:52.746Z,97532.33
2022-12-13T00:09:19.916Z,97536.91
2022-12-13T00:11:46.521Z,97535.85
2022-12-13T00:14:13.580Z,97538.20
2022-12-13T00:16:40.959Z,97538.89
2022-12-13T00:19:07.480Z,97542.63
2022-12-13T00:21:34.343Z,97546.66
2022-12-13T00:24:01.694Z,97546.61
2022-12-13T00:26:32.843Z,97545.20
2022-12-13T00:29:00.939Z,97545.14
2022-12-13T00:31:58.552Z,97549.38
2022-12-13T00:34:15.058Z,97549.84
2022-12-13T00:36:41.643Z,97549.47
2022-12-13T00:39:08.382Z,97548.28
2022-12-13T00:41:36.059Z,97545.04
2022-12-13T00:44:04.419Z,97546.40
2022-12-13T00:46:31.239Z,97549.80
2022-12-13T00:49:00.065Z,97553.88
2022-12-13T00:51:28.833Z,97558.66
2022-12-13T00:53:56.017Z,97559.05
2022-12-13T00:56:25.112Z,97561.48
2022-12-13T00:58:52.678Z,97563.85
2022-12-13T01:01:24.565Z,97568.30
2022-12-13T01:03:54.058Z,97564.40
2022-12-13T01:06:25.607Z,97568.34
2022-12-13T01:08:52.068Z,97574.64
2022-12-13T01:11:19.116Z,97573.01
2022-12-13T01:13:46.255Z,97567.90
2022-12-13T01:16:13.971Z,97570.96
2022-12-13T01:18:41.412Z,97572.33
2022-12-13T01:21:16.420Z,97568.80
2022-12-13T01:23:43.908Z,97566.09
2022-12-13T01:26:15.973Z,97565.91
2022-12-13T01:28:43.216Z,97566.80
2022-12-13T01:31:13.323Z,97574.11
2022-12-13T01:33:40.510Z,97571.89
2022-12-13T01:36:14.718Z,97568.62
2022-12-13T01:38:41.487Z,97570.98
2022-12-13T01:41:17.120Z,97569.14
2022-12-13T01:43:44.488Z,97569.70
2022-12-13T01:46:12.874Z,97570.35
2022-12-13T01:48:47.346Z,97571.55
2022-12-13T01:51:17.537Z,97569.20
2022-12-13T01:53:46.844Z,97575.36
2022-12-13T01:56:23.328Z,97581.02
2022-12-13T01:58:52.419Z,97587.36
2022-12-13T02:01:19.472Z,97588.58
2022-12-13T02:03:46.407Z,97595.24
2022-12-13T02:06:38.863Z,97603.11
2022-12-13T02:09:07.443Z,97602.15
2022-12-13T02:11:40.721Z,97607.80
2022-12-13T02:14:07.257Z,97610.20
2022-12-13T02:17:06.184Z,97613.29
2022-12-13T02:20:21.644Z,97611.99
2022-12-13T02:22:57.945Z,97611.71
2022-12-13T02:26:02.065Z,97609.08
2022-12-13T02:28:37.391Z,97612.70
2022-12-13T02:31:14.952Z,97615.31
2022-12-13T02:33:52.901Z,97619.27
2022-12-13T02:36:36.697Z,97627.15
2022-12-13T02:39:11.706Z,97630.41
2022-12-13T02:41:46.741Z,97630.42
2022-12-13T02:44:34.779Z,97633.17
2022-12-13T02:47:21.977Z,97639.16
2022-12-13T02:49:52.841Z,97643.27
2022-12-13T02:52:22.977Z,97637.50
2022-12-13T02:54:49.626Z,97640.75
2022-12-13T02:57:29.812Z,97643.98
2022-12-13T03:00:00.081Z,97643.02
2022-12-13T03:02:35.322Z,97644.08
2022-12-13T03:05:04.626Z,97646.14
2022-12-13T03:07:50.725Z,97648.36
2022-12-13T03:10:33.049Z,97649.38
2022-12-13T03:13:08.668Z,97651.93
2022-12-13T03:15:35.044Z,97646.52
2022-12-13T03:18:09.685Z,97647.20
2022-12-13T03:20:36.455Z,97645.18
2022-12-13T03:23:02.920Z,97648.08
2022-12-13T03:25:32.656Z,97653.31
2022-12-13T03:28:02.011Z,97657.71
2022-12-13T03:30:30.256Z,97654.81
2022-12-13T03:32:57.012Z,97653.40
2022-12-13T03:35:23.793Z,97657.78
2022-12-13T03:37:51.217Z,97662.16
2022-12-13T03:40:19.767Z,97665.70
2022-12-13T03:42:46.972Z,97669.92
2022-12-13T03:45:14.114Z,97666.67
2022-12-13T03:47:40.974Z,97666.65
2022-12-13T03:50:26.066Z,97670.56
2022-12-13T03:53:01.910Z,97670.59
2022-12-13T03:55:29.029Z,97672.98
2022-12-13T03:57:55.739Z,97672.48
2022-12-13T04:00:22.334Z,97672.30
2022-12-13T04:02:48.819Z,97676.77
2022-12-13T04:05:16.056Z,97677.15
2022-12-13T04:07:47.959Z,97676.33
2022-12-13T04:10:26.415Z,97677.02
2022-12-13T04:12:54.712Z,97681.82
2022-12-13T04:15:27.478Z,97684.89
2022-12-13T04:17:53.872Z,97691.70
2022-12-13T04:20:20.393Z,97698.17
2022-12-13T04:22:46.801Z,97698.69
2022-12-13T04:25:13.511Z,97699.34
2022-12-13T04:27:40.414Z,97698.31
2022-12-13T04:30:07.820Z,97697.80
2022-12-13T04:32:34.372Z,97700.19
2022-12-13T04:35:01.754Z,97701.70
2022-12-13T04:37:29.307Z,97704.08
2022-12-13T04:40:00.593Z,97702.52
2022-12-13T04:42:28.189Z,97707.48
2022-12-13T04:44:54.675Z,97705.45
2022-12-13T04:47:21.106Z,97704.11
2022-12-13T04:49:47.641Z,97708.04
2022-12-13T04:52:14.069Z,97706.02
2022-12-13T04:54:55.899Z,97710.10
2022-12-13T04:57:23.958Z,97710.83
2022-12-13T04:59:50.465Z,97708.12
2022-12-13T05:02:24.089Z,97712.23
2022-12-13T05:04:53.520Z,97713.80
2022-12-13T05:07:21.785Z,97718.43
2022-12-13T05:09:48.433Z,97716.79
2022-12-13T05:12:22.371Z,97718.34
2022-12-13T05:14:49.571Z,97718.37
2022-12-13T05:17:16.028Z,97715.36
2022-12-13T05:19:42.574Z,97716.77
2022-12-13T05:22:13.579Z,97718.84
2022-12-13T05:24:44.453Z,97717.23
2022-12-13T05:27:25.408Z,97716.93
2022-12-13T05:30:03.067Z,97716.98
2022-12-13T05:32:43.391Z,97716.74
2022-12-13T05:35:22.125Z,97718.20
2022-12-13T05:37:55.072Z,97721.66
2022-12-13T05:40:22.684Z,97722.45
2022-12-13T05:42:49.104Z,97722.05
2022-12-13T05:45:17.994Z,97725.16
2022-12-13T05:47:44.728Z,97728.29
2022-12-13T05:50:12.439Z,97724.80
2022-12-13T05:52:39.252Z,97726.70
2022-12-13T05:55:06.544Z,97733.36
2022-12-13T05:57:32.980Z,97733.27
2022-12-13T06:00:01.054Z,97737.06
2022-12-13T06:02:28.233Z,97739.31
2022-12-13T06:04:54.740Z,97742.20
2022-12-13T06:07:21.207Z,97745.98
2022-12-13T06:09:47.779Z,97748.74
2022-12-13T06:12:31.130Z,97748.98
2022-12-13T06:15:00.706Z,97749.39
2022-12-13T06:17:36.011Z,97748.95
2022-12-13T06:20:04.596Z,97752.91
2022-12-13T06:22:50.599Z,97758.08
2022-12-13T06:25:30.726Z,97762.71
2022-12-13T06:28:01.069Z,97765.82
2022-12-13T06:30:29.459Z,97769.92
2022-12-13T06:32:56.519Z,97771.29
2022-12-13T06:35:29.107Z,97770.30
2022-12-13T06:38:01.252Z,97775.41
2022-12-13T06:40:30.885Z,97778.48
2022-12-13T06:42:57.943Z,97781.71
2022-12-13T06:45:25.596Z,97781.71
2022-12-13T06:47:52.336Z,97782.75
2022-12-13T06:50:19.288Z,97789.84
2022-12-13T06:52:46.656Z,97794.20
2022-12-13T06:55:13.716Z,97794.17
2022-12-13T06:57:40.854Z,97793.33
2022-12-13T07:00:09.540Z,97798.06
2022-12-13T07:02:36.394Z,97804.13
2022-12-13T07:05:03.434Z,97808.71
2022-12-13T07:07:29.861Z,97804.64
2022-12-13T07:09:56.399Z,97802.09
2022-12-13T07:12:23.411Z,97803.27
2022-12-13T07:14:50.503Z,97801.23
2022-12-13T07:17:32.640Z,97799.34
2022-12-13T07:20:07.062Z,97807.11
2022-12-13T07:22:34.628Z,97806.42
2022-12-13T07:25:02.390Z,97807.23
2022-12-13T07:27:28.837Z,97809.93
2022-12-13T07:29:55.223Z,97809.55
2022-12-13T07:32:21.681Z,97813.58
2022-12-13T07:34:48.220Z,97814.19
2022-12-13T07:37:30.549Z,97818.20
2022-12-13T07:40:03.294Z,97823.39
2022-12-13T07:42:31.490Z,97824.66
2022-12-13T07:44:57.912Z,97827.98
2022-12-13T07:47:29.808Z,97828.27
2022-12-13T07:49:56.233Z,97828.90
2022-12-13T07:52:22.674Z,97827.30
2022-12-13T07:54:49.106Z,97826.74
2022-12-13T07:57:16.055Z,97824.63
2022-12-13T07:59:42.521Z,97821.71
2022-12-13T08:02:13.831Z,97823.70
2022-12-13T08:04:42.641Z,97824.85
2022-12-13T08:07:11.221Z,97826.32
2022-12-13T08:09:37.687Z,97827.75
2022-12-13T08:12:04.372Z,97826.33
2022-12-13T08:14:31.325Z,97825.08
2022-12-13T08:16:58.029Z,97822.98
2022-12-13T08:19:24.416Z,97824.13
2022-12-13T08:22:01.973Z,97823.40
2022-12-13T08:24:30.951Z,97828.05
2022-12-13T08:26:59.328Z,97829.98
2022-12-13T08:29:34.276Z,97829.48
2022-12-13T08:32:05.307Z,97833.95
2022-12-13T08:34:31.877Z,97831.46
2022-12-13T08:37:01.873Z,97830.99
2022-12-13T08:39:34.002Z,97829.49
2022-12-13T08:42:15.903Z,97831.42
2022-12-13T08:44:49.102Z,97833.43
2022-12-13T08:47:23.249Z,97832.03
2022-12-13T08:49:50.892Z,97838.04
2022-12-13T08:52:17.438Z,97839.05
2022-12-13T08:54:43.845Z,97842.45
2022-12-13T08:57:10.387Z,97845.55
2022-12-13T08:59:36.850Z,97840.50
2022-12-13T09:02:05.314Z,97839.56
2022-12-13T09:04:32.432Z,97835.14
2022-12-13T09:07:01.248Z,97836.38
2022-12-13T09:09:29.026Z,97830.82
2022-12-13T09:11:59.546Z,97834.61
2022-12-13T09:14:27.032Z,97839.73
2022-12-13T09:17:03.349Z,97832.34
2022-12-13T09:19:37.004Z,97833.16
2022-12-13T09:22:05.061Z,97834.59
2022-12-13T09:24:36.337Z,97830.06
2022-12-13T09:27:09.649Z,97829.77
2022-12-13T09:29:37.411Z,97825.95
2022-12-13T09:32:04.263Z,97825.58
2022-12-13T09:34:30.975Z,97822.70
2022-12-13T09:37:01.094Z,97821.10
2022-12-13T09:39:29.503Z,97817.15
2022-12-13T09:42:01.069Z,97816.38
2022-12-13T09:44:43.646Z,97816.16
2022-12-13T09:47:27.415Z,97816.77
2022-12-13T09:50:14.852Z,97815.89
2022-12-13T09:52:44.249Z,97815.29
2022-12-13T09:55:24.657Z,97819.15
2022-12-13T09:57:52.384Z,97815.01
2022-12-13T10:00:21.932Z,97814.93
2022-12-13T10:02:51.803Z,97819.64
2022-12-13T10:05:34.126Z,97820.23
2022-12-13T10:08:16.704Z,97820.26
2022-12-13T10:10:44.011Z,97822.02
2022-12-13T10:13:19.745Z,97822.09
2022-12-13T10:15:54.782Z,97819.51
2022-12-13T10:18:35.055Z,97815.48
2022-12-13T10:21:22.116Z,97814.01
2022-12-13T10:26:39.431Z,97808.54
2022-12-13T10:29:07.394Z,97809.59
2022-12-13T10:31:46.132Z,97806.12
2022-12-13T10:34:25.271Z,97803.35
2022-12-13T10:36:52.099Z,97806.61
2022-12-13T10:39:42.613Z,97805.15
2022-12-13T10:42:23.634Z,97799.12
2022-12-13T10:45:23.676Z,97799.70
2022-12-13T10:47:51.066Z,97796.20
2022-12-13T10:50:30.038Z,97791.98
2022-12-13T10:52:59.316Z,97795.09
2022-12-13T10:55:35.559Z,97792.65
2022-12-13T10:58:05.288Z,97789.53
2022-12-13T11:00:37.150Z,97795.94
2022-12-13T11:03:04.684Z,97798.15
2022-12-13T11:05:33.585Z,97798.09
2022-12-13T11:08:22.745Z,97798.41
2022-12-13T11:11:00.095Z,97802.95
2022-12-13T11:13:34.733Z,97800.58
2022-12-13T11:16:01.890Z,97802.90
2022-12-13T11:18:35.666Z,97804.88
2022-12-13T11:21:05.314Z,97806.38
2022-12-13T11:23:36.729Z,97806.61
2022-12-13T11:26:10.524Z,97801.04
2022-12-13T11:29:01.762Z,97795.10
2022-12-13T11:32:09.993Z,97792.46
2022-12-13T11:34:55.563Z,97791.23
2022-12-13T11:37:42.992Z,97787.59
2022-12-13T11:40:16.907Z,97782.13
2022-12-13T11:42:49.831Z,97780.30
2022-12-13T11:45:24.526Z,97784.80
2022-12-13T11:48:02.123Z,97784.29
2022-12-13T11:50:37.082Z,97783.44
2022-12-13T11:53:12.505Z,97788.54
2022-12-13T11:55:50.703Z,97786.52
2022-12-13T11:59:01.121Z,97792.09
2022-12-13T12:01:43.610Z,97789.99
2022-12-13T12:04:30.299Z,97792.18
2022-12-13T12:07:31.319Z,97790.77
2022-12-13T12:10:03.349Z,97787.56
2022-12-13T12:12:35.527Z,97789.92
2022-12-13T12:15:16.254Z,97793.27
2022-12-13T12:17:43.848Z,97796.23
2022-12-13T12:20:23.154Z,97793.68
2022-12-13T12:23:00.103Z,97791.36
2022-12-13T12:25:45.246Z,97794.26
2022-12-13T12:28:44.608Z,97794.82
2022-12-13T12:31:20.102Z,97794.73
2022-12-13T12:34:02.317Z,97793.02
2022-12-13T12:36:37.596Z,97792.73
2022-12-13T12:39:26.342Z,97792.89
2022-12-13T12:42:56.498Z,97796.19
2022-12-13T12:45:56.397Z,97797.98
2022-12-13T12:49:02.921Z,97804.75
2022-12-13T12:51:48.236Z,97803.37
2022-12-13T12:54:42.431Z,97804.06
2022-12-13T12:57:22.273Z,97804.17
2022-12-13T13:00:19.466Z,97807.84
2022-12-13T13:02:51.483Z,97812.20
2022-12-13T13:05:28.674Z,97810.95
2022-12-13T13:08:04.520Z,97813.55
2022-12-13T13:10:32.009Z,97815.78
2022-12-13T13:13:12.373Z,97819.40
2022-12-13T13:15:39.656Z,97822.45
2022-12-13T13:18:45.955Z,97820.91
2022-12-13T13:21:24.423Z,97819.57
2022-12-13T13:24:09.265Z,97822.30
2022-12-13T13:26:38.702Z,97822.46
2022-12-13T13:29:27.919Z,97825.89
2022-12-13T13:32:02.094Z,97827.96
2022-12-13T13:34:30.410Z,97830.00
2022-12-13T13:36:58.042Z,97828.92
2022-12-13T13:39:33.592Z,97825.95
2022-12-13T13:42:32.262Z,97823.81
2022-12-13T13:45:19.991Z,97830.56
2022-12-13T13:48:15.759Z,97829.33
2022-12-13T13:50:46.575Z,97832.50
2022-12-13T13:53:55.425Z,97834.45
2022-12-13T13:56:30.541Z,97837.09
2022-12-13T13:59:05.709Z,97838.17
2022-12-13T14:01:53.784Z,97839.23
2022-12-13T14:04:29.138Z,97843.89
2022-12-13T14:07:40.703Z,97844.13
2022-12-13T14:10:25.322Z,97846.40
2022-12-13T14:13:09.913Z,97848.51
2022-12-13T14:15:59.771Z,97851.27
2022-12-13T14:18:57.760Z,97852.70
2022-12-13T14:21:47.474Z,97855.30
2022-12-13T14:24:42.174Z,97857.55
2022-12-13T14:27:25.329Z,97860.67
2022-12-13T14:29:58.184Z,97862.58
2022-12-13T14:32:29.249Z,97868.05
2022-12-13T14:34:57.723Z,97867.41
2022-12-13T14:37:35.570Z,97865.94
2022-12-13T14:40:03.424Z,97867.67
2022-12-13T14:42:32.611Z,97873.66
2022-12-13T14:45:15.700Z,97874.72
2022-12-13T14:47:43.189Z,97881.02
2022-12-13T14:50:14.964Z,97885.79
2022-12-13T14:52:43.096Z,97883.43
2022-12-13T14:55:34.053Z,97880.91
2022-12-13T14:58:02.674Z,97883.46
2022-12-13T15:00:31.109Z,97887.04
2022-12-13T15:03:00.746Z,97892.62
2022-12-13T15:05:37.611Z,97896.02
2022-12-13T15:08:10.285Z,97898.05
2022-12-13T15:10:40.928Z,97901.94
2022-12-13T15:13:23.669Z,97898.05
2022-12-13T15:16:00.108Z,97900.60
2022-12-13T15:18:28.015Z,97902.11
2022-12-13T15:20:56.590Z,97903.77
2022-12-13T15:23:32.381Z,97911.73
2022-12-13T15:26:28.260Z,97908.50
2022-12-13T15:29:10.160Z,97910.86
2022-12-13T15:31:38.346Z,97910.50
2022-12-13T15:34:30.572Z,97906.09
2022-12-13T15:37:29.208Z,97909.13
2022-12-13T15:40:05.643Z,97909.95
2022-12-13T15:42:35.177Z,97911.30
2022-12-13T15:45:05.090Z,97912.11
2022-12-13T15:47:32.584Z,97914.47
2022-12-13T15:50:01.652Z,97911.39
2022-12-13T15:52:35.118Z,97912.54
2022-12-13T15:55:07.692Z,97915.22
2022-12-13T15:57:49.328Z,97918.20
2022-12-13T16:00:16.072Z,97922.39
2022-12-13T16:03:10.022Z,97927.09
2022-12-13T16:05:40.203Z,97929.41
2022-12-13T16:08:18.128Z,97928.70
2022-12-13T16:10:49.826Z,97925.98
2022-12-13T16:13:29.749Z,97934.23
2022-12-13T16:16:09.314Z,97936.23
2022-12-13T16:18:53.400Z,97938.21
2022-12-13T16:21:19.838Z,97938.70
2022-12-13T16:23:48.557Z,97940.36
2022-12-13T16:26:21.525Z,97939.83
2022-12-13T16:28:47.908Z,97944.85
2022-12-13T16:31:19.098Z,97946.33
2022-12-13T16:33:45.650Z,97945.27
2022-12-13T16:36:13.011Z,97948.25
2022-12-13T16:38:39.552Z,97951.77
2022-12-13T16:41:08.594Z,97951.05
2022-12-13T16:43:40.252Z,97953.91
2022-12-13T16:47:15.082Z,97949.37
2022-12-13T16:48:54.479Z,97951.07
2022-12-13T16:51:21.942Z,97952.43
2022-12-13T16:53:49.098Z,97953.64
2022-12-13T16:56:15.838Z,97953.66
2022-12-13T16:58:49.407Z,97957.25
2022-12-13T17:01:19.516Z,97960.17
2022-12-13T17:03:46.515Z,97955.52
2022-12-13T17:06:14.869Z,97958.09
2022-12-13T17:08:41.332Z,97959.15
2022-12-13T17:11:09.131Z,97961.72
2022-12-13T17:13:37.383Z,97961.59
2022-12-13T17:16:07.609Z,97962.98
2022-12-13T17:18:34.162Z,97966.59
2022-12-13T17:21:06.804Z,97963.75
2022-12-13T17:23:33.882Z,97965.48
2022-12-13T17:26:05.131Z,97969.76
2022-12-13T17:28:31.541Z,97967.11
2022-12-13T17:31:16.429Z,97975.45
2022-12-13T17:33:43.904Z,97973.30
2022-12-13T17:36:12.487Z,97978.39
2022-12-13T17:38:43.631Z,97974.86
2022-12-13T17:41:10.172Z,97977.75
2022-12-13T17:43:37.028Z,97981.66
2022-12-13T17:46:13.521Z,97983.39
2022-12-13T17:48:41.472Z,97983.39
2022-12-13T17:51:11.083Z,97983.87
2022-12-13T17:53:42.633Z,97985.89
2022-12-13T17:56:10.024Z,97988.77
2022-12-13T17:58:36.519Z,97996.35
2022-12-13T18:01:14.985Z,97998.02
2022-12-13T18:03:42.731Z,97993.98
2022-12-13T18:06:09.894Z,97997.71
2022-12-13T18:08:38.632Z,97997.69
2022-12-13T18:13:55.716Z,98003.13
2022-12-13T18:16:24.753Z,98001.63
2022-12-13T18:18:55.991Z,98002.48
2022-12-13T18:21:24.238Z,98007.56
2022-12-13T18:23:55.747Z,98009.25
2022-12-13T18:26:24.459Z,98016.52
2022-12-13T18:28:52.207Z,98008.77
2022-12-13T18:31:22.240Z,98010.95
2022-12-13T18:33:50.350Z,98008.77
2022-12-13T18:36:18.431Z,98009.75
2022-12-13T18:38:45.482Z,98010.60
2022-12-13T18:41:14.406Z,98010.59
2022-12-13T18:43:42.548Z,98008.39
2022-12-13T18:46:10.173Z,98013.31
2022-12-13T18:48:37.370Z,98015.67
2022-12-13T18:51:07.554Z,98014.81
2022-12-13T18:53:35.193Z,98015.11
2022-12-13T18:56:11.617Z,98017.80
2022-12-13T18:58:43.187Z,98016.26
2022-12-13T19:01:12.028Z,98014.04
2022-12-13T19:03:39.616Z,98016.89
2022-12-13T19:06:07.538Z,98017.36
2022-12-13T19:08:34.663Z,98016.48
2022-12-13T19:11:02.232Z,98018.69
2022-12-13T19:13:30.021Z,98016.83
2022-12-13T19:15:58.715Z,98015.14
2022-12-13T19:18:25.529Z,98014.64
2022-12-13T19:20:53.805Z,98008.91
2022-12-13T19:23:21.571Z,98013.99
2022-12-13T19:25:48.738Z,98015.52
2022-12-13T19:28:18.095Z,98012.14
2022-12-13T19:30:46.721Z,98015.19
2022-12-13T19:33:16.057Z,98010.98
2022-12-13T19:35:43.993Z,98013.02
2022-12-13T19:38:11.045Z,98011.00
2022-12-13T19:40:42.619Z,98009.98
2022-12-13T19:43:10.177Z,98012.16
2022-12-13T19:45:36.917Z,98009.46
2022-12-13T19:48:04.024Z,98009.48
2022-12-13T19:50:30.807Z,98012.52
2022-12-13T19:52:57.963Z,98009.34
2022-12-13T19:55:24.771Z,98010.69
2022-12-13T19:57:51.451Z,98008.97
2022-12-13T20:00:18.195Z,98009.98
2022-12-13T20:02:44.629Z,98012.02
2022-12-13T20:05:11.540Z,98010.84
2022-12-13T20:07:38.095Z,98009.99
2022-12-13T20:10:05.995Z,98011.53
2022-12-13T20:12:37.221Z,98015.92
2022-12-13T20:15:08.394Z,98013.92
2022-12-13T20:17:35.751Z,98010.70
2022-12-13T20:20:03.001Z,98013.08
2022-12-13T20:22:29.741Z,98011.91
2022-12-13T20:24:56.377Z,98010.04
2022-12-13T20:27:23.022Z,98010.52
2022-12-13T20:29:49.663Z,98006.46
2022-12-13T20:32:17.129Z,98006.46
2022-12-13T20:34:44.075Z,98006.63
2022-12-13T20:37:10.716Z,98004.09
2022-12-13T20:39:37.359Z,98003.73
2022-12-13T20:42:03.900Z,98007.60
2022-12-13T20:44:30.631Z,98009.27
2022-12-13T20:46:57.377Z,98004.88
2022-12-13T20:49:24.033Z,98001.16
2022-12-13T20:51:50.675Z,98002.17
2022-12-13T20:54:17.417Z,98003.52
2022-12-13T20:56:43.962Z,98007.09
2022-12-13T20:59:12.959Z,98011.15
2022-12-13T21:01:41.490Z,98014.02
2022-12-13T21:04:10.128Z,98012.33
2022-12-13T21:06:38.945Z,98008.10
2022-12-13T21:09:06.587Z,98014.17
2022-12-13T21:11:36.076Z,98017.02
2022-12-13T21:14:09.085Z,98015.81
2022-12-13T21:16:40.978Z,98016.49
2022-12-13T21:19:09.989Z,98017.00
2022-12-13T21:21:37.309Z,98017.14
2022-12-13T21:24:04.157Z,98013.75
2022-12-13T21:26:35.184Z,98017.28
2022-12-13T21:29:05.911Z,98012.89
2022-12-13T21:31:32.750Z,98010.84
2022-12-13T21:34:00.643Z,98014.88
2022-12-13T21:36:32.127Z,98016.87
2022-12-13T21:39:00.597Z,98015.52
2022-12-13T21:41:27.936Z,98018.20
2022-12-13T21:43:55.212Z,98012.95
2022-12-13T21:46:25.977Z,98018.52
2022-12-13T21:48:57.590Z,98022.06
2022-12-13T21:51:26.010Z,98024.59
2022-12-13T21:53:53.636Z,98028.33
2022-12-13T21:56:23.074Z,98037.61
2022-12-13T21:58:49.501Z,98037.77
2022-12-13T22:01:15.996Z,98034.04
2022-12-13T22:03:42.497Z,98032.69
2022-12-13T22:06:09.242Z,98037.40
2022-12-13T22:08:35.783Z,98032.85
2022-12-13T22:11:02.160Z,98037.56
2022-12-13T22:13:28.871Z,98039.92
2022-12-13T22:15:55.306Z,98038.23
2022-12-13T22:18:22.015Z,98040.05
2022-12-13T22:20:58.633Z,98042.60
2022-12-13T22:23:25.171Z,98040.56
2022-12-13T22:25:51.590Z,98043.08
2022-12-13T22:28:18.050Z,98037.34
2022-12-13T22:30:44.586Z,98037.85
2022-12-13T22:33:11.037Z,98025.55
2022-12-13T22:35:38.060Z,98030.95
2022-12-13T22:38:04.721Z,98025.22
2022-12-13T22:40:31.106Z,98023.88
2022-12-13T22:42:57.592Z,98016.79
2022-12-13T22:45:24.135Z,98015.27
2022-12-13T22:47:50.568Z,98012.77
2022-12-13T22:50:17.215Z,98010.95
2022-12-13T22:52:43.635Z,98015.67
2022-12-13T22:55:10.192Z,98023.09
2022-12-13T22:57:36.620Z,98024.61
2022-12-13T23:00:05.645Z,98018.70
2022-12-13T23:02:32.053Z,98016.83
2022-12-13T23:04:58.618Z,98014.63
2022-12-13T23:07:25.148Z,98015.47
2022-12-13T23:09:51.686Z,98010.56
2022-12-13T23:12:18.124Z,98011.73
2022-12-13T23:14:44.565Z,98013.39
2022-12-13T23:17:11.141Z,98014.90
2022-12-13T23:19:50.260Z,98015.89
2022-12-13T23:22:22.136Z,98009.13
2022-12-13T23:24:49.567Z,98012.50
2022-12-13T23:27:16.623Z,98010.13
2022-12-13T23:29:43.162Z,98013.48
2022-12-13T23:32:09.616Z,98010.09
2022-12-13T23:34:36.052Z,98008.71
2022-12-13T23:37:02.457Z,98004.47
2022-12-13T23:39:28.914Z,98002.94
2022-12-13T23:41:55.454Z,97997.36
2022-12-13T23:44:22.029Z,97993.45
2022-12-13T23:46:49.142Z,97989.03
2022-12-13T23:49:16.845Z,97991.52
2022-12-13T23:51:43.438Z,97993.98
2022-12-13T23:54:11.030Z,97986.80
2022-12-13T23:56:37.429Z,97983.14
2022-12-13T23:59:03.846Z,97991.61
